Time;durP1;ratioP1;P1;durP2;ratioP2;P2;SDS_P1;SDS_P2;PMS_P1;PMS_P2;Temp;Humidity;BMP_temperature;BMP_pressure;BME280_temperature;BME280_humidity;BME280_pressure;Samples;Min_cycle;Max_cycle;Signal;HPM_P1;HPM_P2
2023/10/10 00:01:05;;;;;;;122.07;114.60;;;;;;;12.64;100.00;101857.81;5053072;28;20431;-41
2023/10/10 00:03:39;;;;;;;128.53;119.40;;;;;;;12.66;100.00;101854.97;5053189;28;20772;-41
2023/10/10 00:06:08;;;;;;;131.93;123.87;;;;;;;12.64;100.00;101855.13;5053340;28;20434;-43
2023/10/10 00:08:40;;;;;;;127.57;119.40;;;;;;;12.66;100.00;101844.25;5052272;28;20945;-44
2023/10/10 00:11:10;;;;;;;132.00;123.90;;;;;;;12.66;100.00;101829.00;5053230;28;20431;-40
2023/10/10 00:13:42;;;;;;;129.03;121.80;;;;;;;12.66;100.00;101834.34;5053094;28;20423;-40
2023/10/10 00:16:11;;;;;;;126.00;119.10;;;;;;;12.67;100.00;101832.53;5052754;28;20447;-43
2023/10/10 00:18:43;;;;;;;136.20;127.17;;;;;;;12.67;100.00;101832.53;5059063;28;20466;-45
2023/10/10 00:21:20;;;;;;;135.83;128.10;;;;;;;12.67;100.00;101846.75;5078362;28;20438;-42
2023/10/10 00:23:49;;;;;;;139.07;130.97;;;;;;;12.68;100.00;101842.22;5081443;28;20426;-41
2023/10/10 00:26:20;;;;;;;142.77;134.33;;;;;;;12.70;100.00;101838.34;5083822;28;20469;-41
2023/10/10 00:28:54;;;;;;;144.07;136.23;;;;;;;12.70;100.00;101827.63;5066150;28;20545;-43
2023/10/10 00:31:22;;;;;;;144.07;135.77;;;;;;;12.72;100.00;101836.31;5052597;28;20922;-47
2023/10/10 00:33:52;;;;;;;149.90;138.90;;;;;;;12.70;100.00;101841.03;5052857;28;20439;-44
2023/10/10 00:36:30;;;;;;;153.30;144.07;;;;;;;12.70;100.00;101838.34;5052989;28;20432;-41
2023/10/10 00:39:05;;;;;;;152.87;142.80;;;;;;;12.69;100.00;101842.03;5051938;28;20516;-48
2023/10/10 00:41:36;;;;;;;159.43;149.93;;;;;;;12.69;100.00;101827.84;5052758;28;20802;-44
2023/10/10 00:44:04;;;;;;;148.47;139.13;;;;;;;12.67;100.00;101829.84;5052328;28;20446;-43
2023/10/10 00:46:32;;;;;;;160.10;149.90;;;;;;;12.69;100.00;101822.47;5052755;28;20435;-46
2023/10/10 00:49:01;;;;;;;155.13;145.07;;;;;;;12.67;100.00;101824.50;5064580;28;20540;-44
2023/10/10 00:51:33;;;;;;;152.27;142.70;;;;;;;12.70;100.00;101821.44;5075992;28;20530;-43
2023/10/10 00:54:13;;;;;;;150.90;141.40;;;;;;;12.71;100.00;101823.97;5079640;28;20464;-44
2023/10/10 00:56:44;;;;;;;160.77;149.27;;;;;;;12.70;100.00;101826.81;5079914;28;20462;-42
2023/10/10 00:59:12;;;;;;;158.20;148.50;;;;;;;12.69;100.00;101835.88;5079985;28;20469;-43
2023/10/10 01:01:40;;;;;;;154.90;146.20;;;;;;;12.70;100.00;101832.16;5080397;28;20495;-43
2023/10/10 01:04:11;;;;;;;160.67;150.83;;;;;;;12.69;100.00;101831.31;5077624;28;20490;-43
2023/10/10 01:06:40;;;;;;;156.77;148.10;;;;;;;12.67;100.00;101832.53;5075727;28;20928;-42
2023/10/10 01:09:20;;;;;;;157.33;147.20;;;;;;;12.69;100.00;101833.19;5077418;28;20473;-40
2023/10/10 01:11:49;;;;;;;151.50;142.70;;;;;;;12.70;100.00;101833.00;5080108;28;20909;-41
2023/10/10 01:14:18;;;;;;;156.53;147.43;;;;;;;12.72;100.00;101832.81;5080258;28;20521;-44
2023/10/10 01:16:49;;;;;;;153.57;144.97;;;;;;;12.73;100.00;101821.06;5079915;28;20452;-42
2023/10/10 01:19:18;;;;;;;152.90;143.37;;;;;;;12.74;100.00;101825.44;5060782;28;20459;-44
2023/10/10 01:21:51;;;;;;;156.77;147.50;;;;;;;12.74;100.00;101826.25;5051809;28;20435;-42
2023/10/10 01:24:21;;;;;;;150.03;142.03;;;;;;;12.74;100.00;101820.06;5051911;28;20526;-46
2023/10/10 01:26:51;;;;;;;155.33;146.03;;;;;;;12.72;100.00;101822.91;5055841;28;20432;-43
2023/10/10 01:29:23;;;;;;;158.03;149.77;;;;;;;12.70;100.00;101824.13;5051073;28;20463;-42
2023/10/10 01:31:51;;;;;;;151.27;143.73;;;;;;;12.64;100.00;101815.00;5051430;28;20822;-41
2023/10/10 01:34:39;;;;;;;159.83;150.17;;;;;;;12.66;100.00;101826.34;5051834;28;20811;-42
2023/10/10 01:37:14;;;;;;;144.97;136.60;;;;;;;12.66;100.00;101814.81;5051760;28;20986;-43
2023/10/10 01:39:55;;;;;;;135.57;128.27;;;;;;;12.69;100.00;101809.91;5073281;28;20464;-44
2023/10/10 01:42:31;;;;;;;140.10;132.30;;;;;;;12.71;100.00;101812.41;5078837;28;20433;-45
2023/10/10 01:45:02;;;;;;;143.10;134.10;;;;;;;12.72;100.00;101814.88;5079448;28;20514;-40
2023/10/10 01:47:34;;;;;;;143.47;135.37;;;;;;;12.74;100.00;101812.88;5079362;28;20454;-42
2023/10/10 01:50:07;;;;;;;147.07;137.97;;;;;;;12.72;100.00;101808.72;5074975;28;20817;-42
2023/10/10 01:52:38;;;;;;;151.27;143.07;;;;;;;12.73;100.00;101816.56;5074677;28;21014;-43
2023/10/10 01:55:07;;;;;;;169.50;158.23;;;;;;;12.74;100.00;101822.75;5078495;28;20427;-44
2023/10/10 01:57:35;;;;;;;156.57;148.37;;;;;;;12.71;100.00;101829.31;5079596;28;20460;-42
2023/10/10 02:00:19;;;;;;;153.93;145.33;;;;;;;12.71;100.00;101826.63;5053686;28;20835;-45
2023/10/10 02:02:49;;;;;;;153.83;144.50;;;;;;;12.71;100.00;101815.09;5051197;28;20470;-41
2023/10/10 02:05:30;;;;;;;158.33;149.77;;;;;;;12.71;100.00;101807.91;5051032;28;20776;-44
2023/10/10 02:08:00;;;;;;;139.43;132.27;;;;;;;12.72;100.00;101806.84;5050953;28;20459;-40
2023/10/10 02:10:29;;;;;;;153.90;143.60;;;;;;;12.72;100.00;101808.72;5062731;28;20466;-39
2023/10/10 02:13:00;;;;;;;145.43;137.30;;;;;;;12.74;100.00;101814.72;5057761;28;20435;-41
2023/10/10 02:15:32;;;;;;;154.47;145.17;;;;;;;12.73;100.00;101802.34;5058015;28;20435;-40
2023/10/10 02:18:05;;;;;;;157.97;148.90;;;;;;;12.73;100.00;101794.31;5069781;28;20466;-38
2023/10/10 02:20:49;;;;;;;165.83;156.33;;;;;;;12.71;100.00;101788.31;5089295;28;20478;-41
2023/10/10 02:23:31;;;;;;;168.60;158.50;;;;;;;12.67;100.00;101789.69;5083175;28;20462;-40
2023/10/10 02:26:14;;;;;;;156.90;148.60;;;;;;;12.64;100.00;101796.25;5085997;28;20441;-42
2023/10/10 02:28:47;;;;;;;161.13;153.20;;;;;;;12.60;100.00;101797.63;5076506;28;21034;-40
2023/10/10 02:31:18;;;;;;;156.63;148.97;;;;;;;12.56;100.00;101796.34;5083705;28;20512;-40
2023/10/10 02:33:49;;;;;;;154.40;146.30;;;;;;;12.55;100.00;101788.50;5086970;28;20434;-41
2023/10/10 02:36:29;;;;;;;156.57;148.47;;;;;;;12.53;100.00;101795.88;5085416;28;20465;-46
2023/10/10 02:39:18;;;;;;;152.00;144.73;;;;;;;12.52;100.00;101791.53;5076961;28;20489;-41
2023/10/10 02:41:50;;;;;;;164.13;154.87;;;;;;;12.53;100.00;101782.50;5077201;28;20934;-41
2023/10/10 02:44:38;;;;;;;153.10;146.40;;;;;;;12.54;100.00;101790.38;5085673;28;20465;-39
2023/10/10 02:47:06;;;;;;;164.97;154.67;;;;;;;12.54;100.00;101790.38;5085949;28;20529;-39
2023/10/10 02:49:37;;;;;;;154.13;146.90;;;;;;;12.57;100.00;101781.13;5093486;28;20461;-39
2023/10/10 02:52:07;;;;;;;161.13;152.93;;;;;;;12.56;100.00;101787.50;5090313;28;20505;-39
2023/10/10 02:54:43;;;;;;;157.93;149.90;;;;;;;12.55;100.00;101781.31;5089394;28;21008;-40
2023/10/10 02:57:27;;;;;;;158.30;147.97;;;;;;;12.57;100.00;101787.28;5096922;28;20474;-44
2023/10/10 02:59:59;;;;;;;157.57;149.30;;;;;;;12.56;100.00;101796.34;5085407;28;20486;-43
2023/10/10 03:02:30;;;;;;;169.40;154.77;;;;;;;12.53;100.00;101798.56;5086458;28;20457;-45
2023/10/10 03:05:14;;;;;;;476.50;183.03;;;;;;;12.53;100.00;101801.25;5080948;28;20461;-40
2023/10/10 03:07:44;;;;;;;195.50;163.90;;;;;;;12.52;100.00;101800.41;5087823;28;20446;-44
2023/10/10 03:10:22;;;;;;;173.93;157.23;;;;;;;12.52;100.00;101813.78;5084659;28;20549;-45
2023/10/10 03:12:53;;;;;;;156.27;147.93;;;;;;;12.49;100.00;101816.00;5088096;28;20433;-41
2023/10/10 03:15:32;;;;;;;171.13;153.43;;;;;;;12.45;100.00;101818.22;5082677;28;20521;-43
2023/10/10 03:21:07;;;;;;;233.70;157.87;;;;;;;12.40;100.00;101815.25;5086523;28;20463;-40
2023/10/10 03:23:43;;;;;;;216.20;162.23;;;;;;;12.38;100.00;101809.25;5089227;28;20433;-43
2023/10/10 03:26:19;;;;;;;193.30;155.97;;;;;;;12.35;100.00;101812.28;5085908;28;20879;-42
2023/10/10 03:28:49;;;;;;;176.53;146.27;;;;;;;12.31;100.00;101810.97;5091793;28;20502;-39
2023/10/10 03:31:31;;;;;;;151.17;139.97;;;;;;;12.27;100.00;101796.34;5095389;28;21015;-43
2023/10/10 03:34:11;;;;;;;160.17;149.30;;;;;;;12.25;100.00;101803.69;5096965;28;20891;-39
2023/10/10 03:36:44;;;;;;;186.67;168.43;;;;;;;12.21;100.00;101803.22;5088895;28;20432;-42
2023/10/10 03:39:25;;;;;;;164.37;152.20;;;;;;;12.17;100.00;101801.09;5082129;28;20465;-39
2023/10/10 05:24:12;;;;;;;154.13;146.10;;;;;;;11.91;100.00;101793.47;5071754;28;20438;-40
2023/10/10 05:26:47;;;;;;;165.10;154.83;;;;;;;11.93;100.00;101786.09;5077655;28;20429;-42
2023/10/10 05:29:19;;;;;;;168.23;154.73;;;;;;;11.96;100.00;101792.94;5078565;28;20469;-41
2023/10/10 05:31:47;;;;;;;157.97;148.70;;;;;;;11.96;100.00;101796.44;5071265;28;20438;-43
2023/10/10 05:34:15;;;;;;;160.03;151.53;;;;;;;11.98;100.00;101777.53;5071647;28;20842;-40
2023/10/10 05:36:45;;;;;;;175.70;157.50;;;;;;;11.99;100.00;101789.88;5071711;28;20431;-40
2023/10/10 05:39:17;;;;;;;162.30;150.57;;;;;;;12.01;100.00;101785.19;5069453;28;20463;-43
2023/10/10 05:41:47;;;;;;;166.87;156.27;;;;;;;12.01;100.00;101779.84;5060004;28;20522;-44
2023/10/10 05:44:16;;;;;;;160.77;151.90;;;;;;;12.02;100.00;101785.03;5051060;28;20919;-47
2023/10/10 05:46:44;;;;;;;161.20;152.80;;;;;;;12.05;100.00;101790.00;5059591;28;21011;-43
2023/10/10 05:49:12;;;;;;;163.37;155.27;;;;;;;12.08;100.00;101794.16;5060418;28;20470;-40
2023/10/10 05:51:40;;;;;;;166.83;152.80;;;;;;;12.09;100.00;101783.31;5070770;28;20502;-40
2023/10/10 05:54:10;;;;;;;163.97;153.77;;;;;;;12.13;100.00;101784.56;5071181;28;20431;-41
2023/10/10 05:56:38;;;;;;;199.53;162.33;;;;;;;12.18;100.00;101778.69;5071436;28;20474;-44
2023/10/10 05:59:08;;;;;;;157.70;147.30;;;;;;;12.22;100.00;101782.66;5061731;28;20881;-44
2023/10/10 06:01:37;;;;;;;152.70;144.40;;;;;;;12.25;100.00;101766.25;5051414;28;20542;-41
2023/10/10 06:04:07;;;;;;;152.73;144.33;;;;;;;12.29;100.00;101767.56;5059659;28;20851;-42
2023/10/10 06:06:35;;;;;;;145.90;137.27;;;;;;;12.31;100.00;101760.16;5051338;28;20435;-42
2023/10/10 06:09:04;;;;;;;140.37;132.97;;;;;;;12.35;100.00;101764.16;5060954;28;21085;-43
2023/10/10 06:11:34;;;;;;;141.70;134.57;;;;;;;12.37;100.00;101770.13;5058025;28;20544;-40
2023/10/10 06:14:04;;;;;;;149.07;138.80;;;;;;;12.38;100.00;101766.44;5060432;28;20434;-44
2023/10/10 06:16:32;;;;;;;136.87;129.67;;;;;;;12.41;100.00;101762.56;5059413;28;20516;-43
2023/10/10 06:19:01;;;;;;;138.13;131.33;;;;;;;12.47;100.00;101775.22;5050101;28;20520;-42
2023/10/10 06:21:29;;;;;;;137.80;131.00;;;;;;;12.50;100.00;101777.53;5056945;28;20480;-44
2023/10/10 06:23:57;;;;;;;139.73;132.40;;;;;;;12.53;100.00;101769.97;5054530;28;20519;-42
2023/10/10 06:26:25;;;;;;;140.10;132.83;;;;;;;12.58;100.00;101782.78;5060752;28;20500;-42
2023/10/10 06:28:54;;;;;;;140.47;133.40;;;;;;;12.60;100.00;101773.53;5052448;28;20467;-41
2023/10/10 06:31:33;;;;;;;137.80;130.90;;;;;;;12.65;100.00;101783.72;5050736;28;21081;-47
2023/10/10 06:34:19;;;;;;;143.80;135.30;;;;;;;12.66;100.00;101780.84;5051124;28;20428;-42
2023/10/10 06:36:47;;;;;;;144.23;136.47;;;;;;;12.72;100.00;101779.28;5050949;28;20842;-44
2023/10/10 06:39:19;;;;;;;134.27;127.40;;;;;;;12.76;100.00;101783.25;5050272;28;20462;-46
2023/10/10 06:41:50;;;;;;;131.20;124.90;;;;;;;12.82;100.00;101787.00;5051009;28;20848;-44
2023/10/10 06:44:33;;;;;;;130.17;124.50;;;;;;;12.87;100.00;101780.13;5051517;28;20493;-41
2023/10/10 06:47:08;;;;;;;135.00;127.67;;;;;;;12.91;100.00;101781.38;5050964;28;20426;-42
2023/10/10 06:49:44;;;;;;;123.50;117.00;;;;;;;12.96;100.00;101778.97;5057442;28;20536;-44
2023/10/10 06:52:18;;;;;;;125.13;119.23;;;;;;;13.04;100.00;101783.41;5058893;28;20516;-42
2023/10/10 06:54:53;;;;;;;126.53;119.93;;;;;;;13.05;100.00;101769.81;5060483;28;20436;-44
2023/10/10 06:57:37;;;;;;;122.67;116.80;;;;;;;13.06;100.00;101776.00;5059634;28;20541;-45
2023/10/10 07:00:20;;;;;;;124.80;118.73;;;;;;;13.07;100.00;101772.31;5065739;28;20544;-42
2023/10/10 07:02:50;;;;;;;122.53;116.43;;;;;;;13.06;100.00;101771.47;5074584;28;20483;-43
2023/10/10 07:05:19;;;;;;;117.13;111.63;;;;;;;13.04;100.00;101765.50;5074599;28;20492;-40
2023/10/10 07:07:52;;;;;;;117.00;111.27;;;;;;;13.05;100.00;101769.00;5074323;28;20454;-43
2023/10/10 07:10:26;;;;;;;123.20;116.93;;;;;;;13.01;100.00;101760.50;5073681;28;20481;-42
2023/10/10 07:12:57;;;;;;;121.07;115.50;;;;;;;12.98;100.00;101760.06;5074266;28;20437;-43
2023/10/10 07:15:28;;;;;;;127.80;121.30;;;;;;;12.98;100.00;101760.88;5074488;28;20435;-42
2023/10/10 07:18:08;;;;;;;124.67;117.30;;;;;;;12.99;100.00;101754.50;5073996;28;20465;-43
2023/10/10 07:21:04;;;;;;;126.40;119.90;;;;;;;13.01;100.00;101763.19;5078896;28;20452;-45
2023/10/10 07:23:38;;;;;;;124.80;117.80;;;;;;;12.99;100.00;101762.53;5082566;28;20964;-46
2023/10/10 07:26:18;;;;;;;118.83;112.57;;;;;;;13.01;100.00;101765.03;5083470;28;20512;-42
2023/10/10 07:28:49;;;;;;;121.50;114.80;;;;;;;13.01;100.00;101763.19;5070830;28;20458;-43
2023/10/10 07:31:20;;;;;;;120.73;114.07;;;;;;;13.01;100.00;101760.50;5061717;28;20998;-45
2023/10/10 07:33:55;;;;;;;117.13;111.33;;;;;;;13.01;100.00;101755.16;5061876;28;20431;-40
2023/10/10 07:36:27;;;;;;;125.57;119.40;;;;;;;13.01;100.00;101752.47;5053990;28;20509;-45
2023/10/10 07:39:32;;;;;;;121.13;115.00;;;;;;;13.02;100.00;101754.13;5062336;28;20986;-43
2023/10/10 07:41:46;;;;;;;122.73;115.63;;;;;;;13.03;100.00;101749.59;5065530;28;20426;-41
2023/10/10 07:44:16;;;;;;;115.87;109.97;;;;;;;13.04;100.00;101745.91;5062202;28;21046;-40
2023/10/10 07:47:19;;;;;;;115.20;109.37;;;;;;;13.08;100.00;101741.88;5053837;28;20438;-41
2023/10/10 07:49:39;;;;;;;112.23;106.13;;;;;;;13.11;100.00;101747.66;5061441;28;20454;-43
2023/10/10 07:52:16;;;;;;;110.53;104.43;;;;;;;13.16;100.00;101747.13;5073702;28;20501;-45
2023/10/10 07:54:46;;;;;;;110.97;104.60;;;;;;;13.17;100.00;101749.59;5073670;28;20430;-46
2023/10/10 07:57:17;;;;;;;109.03;103.00;;;;;;;13.21;100.00;101750.03;5073516;28;20453;-44
2023/10/10 07:59:46;;;;;;;107.00;101.10;;;;;;;13.23;100.00;101743.47;5073205;28;20465;-43
2023/10/10 08:02:24;;;;;;;106.97;101.03;;;;;;;13.28;100.00;101743.75;5073781;28;20423;-43
2023/10/10 08:04:53;;;;;;;100.23;94.83;;;;;;;13.35;100.00;101737.66;5073554;28;20799;-42
2023/10/10 08:07:23;;;;;;;97.63;92.17;;;;;;;13.43;100.00;101748.22;5072881;28;20460;-48
2023/10/10 08:10:13;;;;;;;94.53;89.63;;;;;;;13.52;100.00;101753.28;5072566;28;20549;-45
2023/10/10 08:12:41;;;;;;;92.80;88.00;;;;;;;13.66;100.00;101748.84;5073564;28;20543;-42
2023/10/10 08:15:20;;;;;;;95.73;90.20;;;;;;;13.80;100.00;101740.75;5073278;28;20430;-44
2023/10/10 08:17:54;;;;;;;91.53;86.00;;;;;;;13.88;100.00;101741.63;5072824;28;20454;-45
2023/10/10 08:20:34;;;;;;;87.00;81.93;;;;;;;14.05;100.00;101738.47;5065166;28;20973;-43
2023/10/10 08:23:02;;;;;;;87.70;82.80;;;;;;;14.16;100.00;101731.72;5073010;28;20503;-46
2023/10/10 08:25:30;;;;;;;93.77;87.83;;;;;;;14.19;100.00;101734.00;5073011;28;20918;-44
2023/10/10 08:27:59;;;;;;;95.73;88.87;;;;;;;14.27;100.00;101728.53;5072472;28;20450;-43
2023/10/10 08:30:26;;;;;;;98.37;91.70;;;;;;;14.34;100.00;101724.03;5072241;28;20447;-47
2023/10/10 08:32:57;;;;;;;104.17;97.00;;;;;;;14.39;100.00;101732.34;5072599;28;20545;-47
2023/10/10 08:35:29;;;;;;;104.30;97.33;;;;;;;14.43;100.00;101713.97;5072987;28;20431;-44
2023/10/10 08:37:57;;;;;;;99.17;92.27;;;;;;;14.53;100.00;101714.44;5072520;28;20450;-41
2023/10/10 08:40:33;;;;;;;102.83;96.27;;;;;;;14.64;100.00;101714.69;5072171;28;20462;-40
2023/10/10 08:43:03;;;;;;;108.73;99.80;;;;;;;14.73;100.00;101713.50;5072734;28;20422;-44
2023/10/10 08:45:39;;;;;;;107.90;99.73;;;;;;;14.85;100.00;101709.22;5073127;28;20476;-42
2023/10/10 08:48:12;;;;;;;96.83;89.73;;;;;;;15.01;100.00;101709.91;5072150;28;20457;-42
2023/10/10 08:50:41;;;;;;;103.50;95.23;;;;;;;15.08;100.00;101708.06;5072627;28;20431;-43
2023/10/10 08:53:12;;;;;;;107.23;99.00;;;;;;;15.15;100.00;101706.22;5072481;28;20508;-40
2023/10/10 08:55:41;;;;;;;96.20;90.07;;;;;;;15.19;100.00;101694.88;5072474;28;20431;-44
2023/10/10 08:58:10;;;;;;;107.57;99.63;;;;;;;15.20;100.00;101693.00;5072063;28;20454;-48
2023/10/10 09:00:38;;;;;;;112.67;103.67;;;;;;;15.18;100.00;101693.19;5072141;28;20422;-45
2023/10/10 09:03:07;;;;;;;114.23;105.13;;;;;;;15.11;100.00;101694.22;5072268;28;20430;-44
2023/10/10 09:05:37;;;;;;;115.20;107.10;;;;;;;15.10;100.00;101692.56;5072240;28;20782;-43
2023/10/10 09:08:14;;;;;;;111.97;103.97;;;;;;;15.18;100.00;101693.19;5071499;28;20455;-40
2023/10/10 09:10:46;;;;;;;111.93;103.97;;;;;;;15.31;100.00;101695.91;5071947;28;20921;-43
2023/10/10 09:13:14;;;;;;;104.60;97.47;;;;;;;15.43;100.00;101690.75;5071957;28;20849;-42
2023/10/10 09:15:54;;;;;;;110.07;102.37;;;;;;;15.44;100.00;101692.44;5072184;28;20521;-41
2023/10/10 09:18:23;;;;;;;106.70;99.20;;;;;;;15.47;100.00;101684.00;5062917;28;20488;-41
2023/10/10 09:20:54;;;;;;;108.03;100.97;;;;;;;15.56;100.00;101684.59;5072058;28;20545;-42
2023/10/10 09:23:23;;;;;;;112.67;104.50;;;;;;;15.69;100.00;101689.97;5064345;28;20437;-46
2023/10/10 09:26:04;;;;;;;111.53;103.97;;;;;;;15.74;100.00;101687.50;5072099;28;20484;-42
2023/10/10 09:28:44;;;;;;;111.53;103.60;;;;;;;15.85;100.00;101690.41;5065018;28;20553;-40
2023/10/10 09:31:20;;;;;;;112.60;105.20;;;;;;;15.80;100.00;101684.00;5071530;28;20438;-40
2023/10/10 09:33:54;;;;;;;111.47;104.50;;;;;;;15.85;100.00;101681.50;5071942;28;20492;-40
2023/10/10 09:36:27;;;;;;;113.57;106.97;;;;;;;16.02;100.00;101686.22;5071809;28;20926;-39
2023/10/10 09:39:08;;;;;;;113.10;106.43;;;;;;;16.20;100.00;101684.75;5070805;28;20482;-39
2023/10/10 09:42:00;;;;;;;106.13;99.20;;;;;;;16.31;100.00;101670.63;5071504;28;20518;-40
2023/10/10 09:44:53;;;;;;;107.67;100.67;;;;;;;16.49;100.00;101663.53;5063943;28;20438;-39
2023/10/10 09:52:53;;;;;;;116.33;109.80;;;;;;;16.71;100.00;101644.41;5071166;28;20472;-45
2023/10/10 09:55:39;;;;;;;109.70;103.40;;;;;;;16.73;100.00;101639.63;5071675;28;20438;-41
2023/10/10 09:58:24;;;;;;;114.80;108.47;;;;;;;16.82;100.00;101646.41;5070531;28;20524;-41
2023/10/10 10:00:53;;;;;;;109.20;102.87;;;;;;;16.97;100.00;101644.25;5071170;28;20513;-39
2023/10/10 10:03:42;;;;;;;109.47;102.80;;;;;;;17.09;100.00;101639.84;5071395;28;20426;-41
2023/10/10 10:06:35;;;;;;;109.50;103.10;;;;;;;17.25;100.00;101643.88;5071246;28;20426;-39
2023/10/10 10:09:45;;;;;;;108.80;102.70;;;;;;;17.35;100.00;101642.34;5070335;28;20829;-41
2023/10/10 10:12:33;;;;;;;110.83;104.87;;;;;;;17.47;100.00;101637.09;5071050;28;20549;-42
2023/10/10 10:15:15;;;;;;;115.67;108.93;;;;;;;17.43;100.00;101628.59;5071030;28;20522;-43
2023/10/10 10:17:54;;;;;;;115.50;109.20;;;;;;;17.39;100.00;101623.84;5070963;28;20501;-42
2023/10/10 10:20:33;;;;;;;112.97;106.97;;;;;;;17.38;100.00;101625.72;5070455;28;20454;-39
2023/10/10 10:23:01;;;;;;;121.33;114.87;;;;;;;17.33;100.00;101630.13;5070788;28;20797;-39
2023/10/10 10:25:32;;;;;;;121.70;114.70;;;;;;;17.25;100.00;101633.94;5071216;28;20434;-40
2023/10/10 10:28:11;;;;;;;121.10;115.20;;;;;;;17.25;100.00;101625.84;5071131;28;20462;-44
2023/10/10 10:30:50;;;;;;;124.87;118.20;;;;;;;17.16;100.00;101619.06;5076288;28;20933;-43
2023/10/10 10:33:22;;;;;;;130.10;123.30;;;;;;;17.13;100.00;101614.09;5083988;28;20488;-41
2023/10/10 10:36:15;;;;;;;126.00;119.57;;;;;;;17.20;100.00;101622.16;5093103;28;20437;-44
2023/10/10 10:41:42;;;;;;;126.97;120.23;;;;;;;17.30;100.00;101622.47;5091029;28;20429;-41
2023/10/10 10:44:12;;;;;;;122.40;115.97;;;;;;;17.36;100.00;101624.28;5096451;28;20425;-41
2023/10/10 10:46:47;;;;;;;122.30;115.97;;;;;;;17.42;100.00;101620.72;5086385;28;20488;-39
2023/10/10 10:49:22;;;;;;;123.20;117.03;;;;;;;17.44;100.00;101615.94;5087737;28;20452;-41
2023/10/10 10:52:10;;;;;;;118.80;113.20;;;;;;;17.60;100.00;101610.84;5099058;28;20433;-39
2023/10/10 10:54:41;;;;;;;121.70;115.40;;;;;;;17.77;100.00;101604.88;5086494;28;20487;-39
2023/10/10 10:57:13;;;;;;;128.80;122.80;;;;;;;17.93;100.00;101604.28;5085478;28;20429;-39
2023/10/10 10:59:55;;;;;;;115.07;109.83;;;;;;;18.08;100.00;101596.66;5071498;28;20486;-39
2023/10/10 11:02:29;;;;;;;114.70;109.10;;;;;;;18.19;100.00;101594.00;5077904;28;20508;-38
2023/10/10 11:04:58;;;;;;;121.23;115.30;;;;;;;18.31;100.00;101591.38;5077303;28;20429;-39
2023/10/10 11:07:40;;;;;;;116.17;110.57;;;;;;;18.38;100.00;101577.78;5065429;28;20458;-42
2023/10/10 11:10:10;;;;;;;120.13;114.83;;;;;;;18.47;100.00;101569.16;5065575;28;20488;-43
2023/10/10 11:12:40;;;;;;;116.77;111.67;;;;;;;18.66;100.00;101576.22;5076802;28;20473;-41
2023/10/10 11:15:10;;;;;;;114.27;109.10;;;;;;;18.89;100.00;101580.03;5068628;28;20431;-40
2023/10/10 11:17:45;;;;;;;109.90;104.90;;;;;;;18.94;100.00;101564.75;5071370;28;20463;-45
2023/10/10 11:20:29;;;;;;;113.83;108.73;;;;;;;19.06;100.00;101554.78;5074451;28;20458;-42
2023/10/10 11:23:11;;;;;;;117.20;112.10;;;;;;;19.23;100.00;101542.22;5093745;28;20478;-42
2023/10/10 11:25:46;;;;;;;111.47;106.67;;;;;;;19.43;100.00;101547.34;5085442;28;20521;-45
2023/10/10 11:28:23;;;;;;;104.17;99.57;;;;;;;19.58;100.00;101549.56;5086959;28;20457;-41
2023/10/10 11:30:52;;;;;;;105.30;100.40;;;;;;;19.67;100.00;101537.31;5096593;28;20943;-42
2023/10/10 11:33:46;;;;;;;105.97;101.27;;;;;;;19.81;100.00;101538.69;5077371;28;20481;-39
2023/10/10 11:36:37;;;;;;;101.27;97.10;;;;;;;19.74;100.00;101516.38;5078504;28;20521;-41
2023/10/10 11:39:25;;;;;;;99.80;95.50;;;;;;;19.66;100.00;101524.84;5069398;28;20546;-43
2023/10/10 11:41:52;;;;;;;93.20;89.40;;;;;;;19.67;100.00;101518.38;5065291;28;20462;-43
2023/10/10 11:44:22;;;;;;;96.07;91.93;;;;;;;19.73;100.00;101522.84;5071696;28;20427;-42
2023/10/10 11:47:02;;;;;;;92.53;88.33;;;;;;;19.65;100.00;101515.09;5079820;28;20434;-40
2023/10/10 11:49:32;;;;;;;87.30;83.53;;;;;;;19.49;100.00;101513.09;5079165;28;20457;-45
2023/10/10 11:52:00;;;;;;;86.97;83.33;;;;;;;19.37;100.00;101509.56;5071924;28;20470;-42
2023/10/10 11:54:29;;;;;;;88.27;84.60;;;;;;;19.36;100.00;101503.31;5068082;28;20497;-41
2023/10/10 11:56:59;;;;;;;89.27;85.53;;;;;;;19.45;100.00;101498.41;5058872;28;20494;-38
2023/10/10 11:59:32;;;;;;;87.27;83.47;;;;;;;19.48;100.00;101506.88;5059751;28;20482;-42
2023/10/10 12:02:13;;;;;;;86.33;82.60;;;;;;;19.48;100.00;101509.56;5075672;28;20430;-42
2023/10/10 12:04:44;;;;;;;81.40;77.57;;;;;;;19.49;100.00;101510.41;5068182;28;20867;-39
2023/10/10 12:07:14;;;;;;;78.23;74.83;;;;;;;19.37;100.00;101501.44;5077158;28;20522;-41
2023/10/10 12:09:45;;;;;;;74.50;71.30;;;;;;;19.27;100.00;101497.44;5070726;28;20545;-40
2023/10/10 12:12:15;;;;;;;74.27;71.07;;;;;;;19.27;100.00;101494.75;5079722;28;20426;-40
2023/10/10 12:14:44;;;;;;;75.40;72.20;;;;;;;19.31;100.00;101493.22;5078877;28;20477;-42
2023/10/10 12:17:14;;;;;;;74.57;71.10;;;;;;;19.27;100.00;101488.50;5078606;28;20549;-42
2023/10/10 12:19:43;;;;;;;73.60;70.20;;;;;;;19.21;100.00;101482.16;5086952;28;20872;-40
2023/10/10 12:22:11;;;;;;;72.00;68.50;;;;;;;19.21;100.00;101476.75;5088709;28;20525;-41
2023/10/10 12:24:40;;;;;;;77.33;73.63;;;;;;;19.17;100.00;101483.69;5086383;28;20430;-46
2023/10/10 12:27:09;;;;;;;72.57;69.47;;;;;;;19.07;100.00;101469.94;5080307;28;20434;-39
2023/10/10 12:29:39;;;;;;;72.90;69.57;;;;;;;18.98;100.00;101473.22;5085266;28;20485;-38
2023/10/10 12:32:15;;;;;;;73.20;70.00;;;;;;;18.91;100.00;101457.09;5087228;28;20436;-40
2023/10/10 12:34:45;;;;;;;74.07;70.97;;;;;;;18.84;100.00;101472.63;5079360;28;20527;-48
2023/10/10 12:37:15;;;;;;;71.60;68.60;;;;;;;18.71;100.00;101462.84;5086833;28;20453;-45
2023/10/10 12:39:44;;;;;;;70.50;67.30;;;;;;;18.79;100.00;101458.97;5072327;28;20513;-42
2023/10/10 12:42:11;;;;;;;72.73;69.43;;;;;;;18.82;100.00;101455.81;5061053;28;20780;-44
2023/10/10 12:44:39;;;;;;;68.80;65.80;;;;;;;18.83;100.00;101454.75;5077252;28;20422;-44
2023/10/10 12:47:07;;;;;;;68.77;65.87;;;;;;;18.94;100.00;101443.13;5069299;28;20444;-42
2023/10/10 12:49:44;;;;;;;71.80;68.70;;;;;;;18.99;100.00;101437.03;5069539;28;20511;-41
2023/10/10 12:52:12;;;;;;;70.23;67.33;;;;;;;18.98;100.00;101432.66;5061065;28;20498;-41
2023/10/10 12:54:41;;;;;;;73.20;70.10;;;;;;;18.95;100.00;101414.22;5057957;28;20466;-42
2023/10/10 12:57:14;;;;;;;72.20;69.30;;;;;;;19.00;100.00;101420.56;5066905;28;20975;-39
2023/10/10 12:59:46;;;;;;;74.43;71.23;;;;;;;19.04;100.00;101416.34;5064483;28;20461;-43
2023/10/10 13:02:15;;;;;;;70.33;67.13;;;;;;;18.97;100.00;101425.59;5068202;28;20530;-43
2023/10/10 13:04:48;;;;;;;66.23;63.13;;;;;;;18.93;100.00;101419.06;5072757;28;20784;-44
2023/10/10 13:07:16;;;;;;;69.03;65.93;;;;;;;18.87;100.00;101423.53;5066411;28;20450;-41
2023/10/10 13:09:46;;;;;;;67.87;65.00;;;;;;;18.86;100.00;101411.06;5057275;28;20458;-37
2023/10/10 13:12:27;;;;;;;65.27;62.43;;;;;;;18.82;100.00;101414.47;5068282;28;20430;-42